createdAt,value
2018-04-05T00:00:52.106Z,10.00
2018-04-05T00:03:19.624Z,10.10
2018-04-05T00:05:47.190Z,10.10
2018-04-05T00:08:14.716Z,10.10
2018-04-05T00:10:43.096Z,10.10
2018-04-05T00:13:11.371Z,10.20
2018-04-05T00:15:39.646Z,10.20
2018-04-05T00:18:07.919Z,10.20
2018-04-05T00:20:36.204Z,10.20
2018-04-05T00:23:04.515Z,10.20
2018-04-05T00:25:32.834Z,10.20
2018-04-05T00:28:00.316Z,10.20
2018-04-05T00:30:27.838Z,10.20
2018-04-05T00:32:55.334Z,10.20
2018-04-05T00:35:22.854Z,10.20
2018-04-05T00:37:50.451Z,10.20
2018-04-05T00:40:18.111Z,10.20
2018-04-05T00:42:45.752Z,10.20
2018-04-05T00:45:14.058Z,10.20
2018-04-05T00:47:41.578Z,10.20
2018-04-05T00:50:10.201Z,10.20
2018-04-05T00:52:38.035Z,10.20
2018-04-05T00:55:06.430Z,10.20
2018-04-05T00:57:34.759Z,10.20
2018-04-05T01:00:02.330Z,10.20
2018-04-05T01:02:29.823Z,10.10
2018-04-05T01:04:57.425Z,10.10
2018-04-05T01:07:25.828Z,10.10
2018-04-05T01:09:53.641Z,10.00
2018-04-05T01:12:21.183Z,10.10
2018-04-05T01:14:48.678Z,10.00
2018-04-05T01:17:16.579Z,10.00
2018-04-05T01:19:44.085Z,10.00
2018-04-05T01:22:11.638Z,10.00
2018-04-05T01:24:39.122Z,10.00
2018-04-05T01:27:06.754Z,9.90
2018-04-05T01:29:34.317Z,9.90
2018-04-05T01:32:01.861Z,9.80
2018-04-05T01:34:29.428Z,9.90
2018-04-05T01:36:56.930Z,9.90
2018-04-05T01:39:24.439Z,9.90
2018-04-05T01:41:51.944Z,9.80
2018-04-05T01:44:19.474Z,9.80
2018-04-05T01:46:46.982Z,9.80
2018-04-05T01:49:15.263Z,9.80
2018-04-05T01:51:43.589Z,9.80
2018-04-05T01:54:11.227Z,9.80
2018-04-05T01:56:38.891Z,9.80
2018-04-05T01:59:06.391Z,9.80
2018-04-05T02:01:33.910Z,9.80
2018-04-05T02:04:01.425Z,9.80
2018-04-05T02:06:29.125Z,9.80
2018-04-05T02:08:56.610Z,9.80
2018-04-05T02:11:24.193Z,9.80
2018-04-05T02:13:51.673Z,9.90
2018-04-05T02:16:19.175Z,9.90
2018-04-05T02:18:46.695Z,10.00
2018-04-05T02:21:14.199Z,10.00
2018-04-05T02:23:41.744Z,10.00
2018-04-05T02:26:09.356Z,10.00
2018-04-05T02:28:37.613Z,10.10
2018-04-05T02:31:05.150Z,10.10
2018-04-05T02:33:32.645Z,10.10
2018-04-05T02:36:00.944Z,10.10
2018-04-05T02:38:28.507Z,10.10
2018-04-05T02:40:56.028Z,10.00
2018-04-05T02:43:24.303Z,9.80
2018-04-05T02:45:52.613Z,9.70
2018-04-05T02:48:20.106Z,9.70
2018-04-05T02:50:47.652Z,9.60
2018-04-05T02:53:15.155Z,9.60
2018-04-05T02:55:43.459Z,9.50
2018-04-05T02:58:10.968Z,9.50
2018-04-05T03:00:38.525Z,9.50
2018-04-05T03:03:06.053Z,9.60
2018-04-05T03:05:34.456Z,9.70
2018-04-05T03:08:02.741Z,9.80
2018-04-05T03:10:31.760Z,9.80
2018-04-05T03:12:59.340Z,9.70
2018-04-05T03:15:26.818Z,9.80
2018-04-05T03:17:54.326Z,9.80
2018-04-05T03:20:22.617Z,9.70
2018-04-05T03:22:50.157Z,9.70
2018-04-05T03:25:18.435Z,9.80
2018-04-05T03:27:45.922Z,9.80
2018-04-05T03:30:13.458Z,9.80
2018-04-05T03:32:41.037Z,9.80
2018-04-05T03:35:08.539Z,9.80
2018-04-05T03:37:36.054Z,9.90
2018-04-05T03:40:03.549Z,9.90
2018-04-05T03:42:31.064Z,9.90
2018-04-05T03:44:58.589Z,10.00
2018-04-05T03:47:26.467Z,10.00
2018-04-05T03:49:53.998Z,9.90
2018-04-05T03:52:21.514Z,9.90
2018-04-05T03:54:49.886Z,9.90
2018-04-05T03:57:17.441Z,10.00
2018-04-05T03:59:44.960Z,10.00
2018-04-05T04:02:12.472Z,10.10
2018-04-05T04:04:39.984Z,10.00
2018-04-05T04:07:08.813Z,10.00
2018-04-05T04:09:36.345Z,10.00
2018-04-05T04:12:04.665Z,9.90
2018-04-05T04:14:32.171Z,9.80
2018-04-05T04:16:59.723Z,9.80
2018-04-05T04:19:27.998Z,9.60
2018-04-05T04:21:56.251Z,9.60
2018-04-05T04:24:23.802Z,9.60
2018-04-05T04:26:51.323Z,9.70
2018-04-05T04:29:18.868Z,9.70
2018-04-05T04:31:46.388Z,9.70
2018-04-05T04:34:14.665Z,9.80
2018-04-05T04:36:42.981Z,9.90
2018-04-05T04:39:10.495Z,9.90
2018-04-05T04:41:38.000Z,10.00
2018-04-05T04:44:05.502Z,9.90
2018-04-05T04:46:33.041Z,10.00
2018-04-05T04:49:00.577Z,9.90
2018-04-05T04:51:28.102Z,9.90
2018-04-05T04:53:55.686Z,9.90
2018-04-05T04:56:23.180Z,9.90
2018-04-05T04:58:50.871Z,9.90
2018-04-05T05:01:19.175Z,10.00
2018-04-05T05:03:46.700Z,10.00
2018-04-05T05:06:15.026Z,10.00
2018-04-05T05:08:42.546Z,10.00
2018-04-05T05:11:10.845Z,10.00
2018-04-05T05:13:38.335Z,10.00
2018-04-05T05:16:05.871Z,9.90
2018-04-05T05:18:33.396Z,9.80
2018-04-05T05:21:00.908Z,9.80
2018-04-05T05:23:28.451Z,9.80
2018-04-05T05:25:55.942Z,9.80
2018-04-05T05:28:23.453Z,9.70
2018-04-05T05:30:50.970Z,9.90
2018-04-05T05:33:19.271Z,9.80
2018-04-05T05:35:46.777Z,9.80
2018-04-05T05:38:14.303Z,9.80
2018-04-05T05:40:42.468Z,9.80
2018-04-05T05:43:09.995Z,9.80
2018-04-05T05:45:38.272Z,9.80
2018-04-05T05:48:06.525Z,9.80
2018-04-05T05:50:34.033Z,9.80
2018-04-05T05:53:01.534Z,9.80
2018-04-05T05:55:30.553Z,9.80
2018-04-05T05:57:58.846Z,9.80
2018-04-05T06:00:26.391Z,9.80
2018-04-05T06:02:54.659Z,9.80
2018-04-05T06:05:22.966Z,9.80
2018-04-05T06:07:50.533Z,9.80
2018-04-05T06:10:18.024Z,9.80
2018-04-05T06:12:45.553Z,9.80
2018-04-05T06:15:13.057Z,9.80
2018-04-05T06:17:41.356Z,9.90
2018-04-05T06:20:08.870Z,9.90
2018-04-05T06:22:36.402Z,10.00
2018-04-05T06:25:03.956Z,10.10
2018-04-05T06:27:31.464Z,10.20
2018-04-05T06:29:59.012Z,10.30
2018-04-05T06:32:27.278Z,10.30
2018-04-05T06:34:55.080Z,10.30
2018-04-05T06:37:22.596Z,10.30
2018-04-05T06:39:50.112Z,10.40
2018-04-05T06:42:17.895Z,10.30
2018-04-05T06:44:45.422Z,10.30
2018-04-05T06:47:12.938Z,10.40
2018-04-05T06:49:40.490Z,10.50
2018-04-05T06:52:08.791Z,10.40
2018-04-05T06:54:37.108Z,10.40
2018-04-05T06:57:04.971Z,10.40
2018-04-05T06:59:32.471Z,10.30
2018-04-05T07:01:59.986Z,10.20
2018-04-05T07:04:27.507Z,10.00
2018-04-05T07:06:56.086Z,10.00
2018-04-05T07:09:24.322Z,10.30
2018-04-05T07:11:52.952Z,10.30
2018-04-05T07:14:21.582Z,10.50
2018-04-05T07:16:49.202Z,10.50
2018-04-05T07:19:16.865Z,10.30
2018-04-05T07:21:45.239Z,9.90
2018-04-05T07:24:12.863Z,9.90
2018-04-05T07:26:40.384Z,9.90
2018-04-05T07:29:08.422Z,10.30
2018-04-05T07:31:36.826Z,11.30
2018-04-05T07:34:04.338Z,11.20
2018-04-05T07:36:31.846Z,12.00
2018-04-05T07:38:59.367Z,12.40
2018-04-05T07:41:27.670Z,12.40
2018-04-05T07:43:55.186Z,12.40
2018-04-05T07:46:22.689Z,12.20
2018-04-05T07:48:50.227Z,12.10
2018-04-05T07:51:18.507Z,11.40
2018-04-05T07:53:46.740Z,11.90
2018-04-05T07:56:14.532Z,11.90
2018-04-05T07:58:42.852Z,13.30
2018-04-05T08:01:11.657Z,13.30
2018-04-05T08:03:39.275Z,14.50
2018-04-05T08:06:06.779Z,14.80
2018-04-05T08:08:34.506Z,14.80
2018-04-05T08:11:02.000Z,15.00
2018-04-05T08:13:29.499Z,15.20
2018-04-05T08:15:57.795Z,15.20
2018-04-05T08:18:25.368Z,15.20
2018-04-05T08:20:52.911Z,14.60
2018-04-05T08:23:20.490Z,14.80
2018-04-05T08:25:48.076Z,14.90
2018-04-05T08:28:15.680Z,14.70
2018-04-05T08:30:43.267Z,14.30
2018-04-05T08:33:10.908Z,14.50
2018-04-05T08:35:38.466Z,14.70
2018-04-05T08:38:05.995Z,15.20
2018-04-05T08:40:33.514Z,15.00
2018-04-05T08:43:01.012Z,15.10
2018-04-05T08:45:28.538Z,14.80
2018-04-05T08:47:56.072Z,14.30
2018-04-05T08:50:24.489Z,14.50
2018-04-05T08:52:52.783Z,13.70
2018-04-05T08:55:21.086Z,13.00
2018-04-05T08:57:48.759Z,12.90
2018-04-05T09:00:16.276Z,12.40
2018-04-05T09:02:44.615Z,11.80
2018-04-05T09:05:12.105Z,11.80
2018-04-05T09:07:40.534Z,11.50
2018-04-05T09:10:08.055Z,11.50
2018-04-05T09:12:35.571Z,12.10
2018-04-05T09:15:03.069Z,12.60
2018-04-05T09:17:30.585Z,13.20
2018-04-05T09:19:58.103Z,13.50
2018-04-05T09:22:25.642Z,13.20
2018-04-05T09:24:53.176Z,12.30
2018-04-05T09:27:21.481Z,11.70
2018-04-05T09:29:49.003Z,11.70
2018-04-05T09:32:16.519Z,12.50
2018-04-05T09:34:44.043Z,12.80
2018-04-05T09:37:11.598Z,12.50
2018-04-05T09:39:39.136Z,12.00
2018-04-05T09:42:07.422Z,11.80
2018-04-05T09:44:35.709Z,11.80
2018-04-05T09:47:04.617Z,11.80
2018-04-05T09:49:32.170Z,11.80
2018-04-05T09:51:59.719Z,11.20
2018-04-05T09:54:27.238Z,11.30
2018-04-05T09:56:54.823Z,11.20
2018-04-05T09:59:23.095Z,12.10
2018-04-05T10:01:56.927Z,12.50
2018-04-05T10:04:24.484Z,12.50
2018-04-05T10:06:52.778Z,12.10
2018-04-05T10:09:20.314Z,12.10
2018-04-05T10:11:47.831Z,12.00
2018-04-05T10:14:15.423Z,11.30
2018-04-05T10:16:44.360Z,10.30
2018-04-05T10:19:11.882Z,10.30
2018-04-05T10:21:39.380Z,9.60
2018-04-05T10:24:06.881Z,8.90
2018-04-05T10:26:36.852Z,9.00
2018-04-05T10:29:04.385Z,8.90
2018-04-05T10:31:31.872Z,9.00
2018-04-05T10:33:59.384Z,8.90
2018-04-05T10:36:26.965Z,9.20
2018-04-05T10:38:54.473Z,9.60
2018-04-05T10:41:22.717Z,9.60
2018-04-05T10:43:50.270Z,9.60
2018-04-05T10:46:17.796Z,9.90
2018-04-05T10:48:45.344Z,10.00
2018-04-05T10:51:12.863Z,10.10
2018-04-05T10:53:40.383Z,10.10
2018-04-05T10:56:08.003Z,9.90
2018-04-05T10:58:36.285Z,10.30
2018-04-05T11:01:04.592Z,10.10
2018-04-05T11:03:32.119Z,10.10
2018-04-05T11:06:00.007Z,9.90
2018-04-05T11:08:27.577Z,10.10
2018-04-05T11:10:55.078Z,10.00
2018-04-05T11:13:23.396Z,10.20
2018-04-05T11:15:50.908Z,10.20
2018-04-05T11:18:18.423Z,9.80
2018-04-05T11:20:45.959Z,10.30
2018-04-05T11:23:13.498Z,10.10
2018-04-05T11:25:41.815Z,9.70
2018-04-05T11:28:09.321Z,9.70
2018-04-05T11:30:37.605Z,9.90
2018-04-05T11:33:06.018Z,9.90
2018-04-05T11:35:33.552Z,9.90
2018-04-05T11:38:01.849Z,10.30
2018-04-05T11:40:29.331Z,10.30
2018-04-05T11:42:56.864Z,10.40
2018-04-05T11:45:24.406Z,10.40
2018-04-05T11:47:51.948Z,10.90
2018-04-05T11:50:20.244Z,10.60
2018-04-05T11:52:47.933Z,10.60
2018-04-05T11:55:15.595Z,10.50
2018-04-05T11:57:43.131Z,10.30
2018-04-05T12:00:10.737Z,10.10
2018-04-05T12:02:38.380Z,10.00
2018-04-05T12:05:06.230Z,9.90
2018-04-05T12:07:33.810Z,9.80
2018-04-05T12:10:01.345Z,9.70
2018-04-05T12:12:28.915Z,9.80
2018-04-05T12:17:31.249Z,9.80
2018-04-05T12:19:58.770Z,9.80
2018-04-05T12:22:26.309Z,9.90
2018-04-05T12:24:53.843Z,9.70
2018-04-05T12:27:21.390Z,9.00
2018-04-05T12:29:48.919Z,8.60
2018-04-05T12:32:16.713Z,8.20
2018-04-05T12:34:44.305Z,8.10
2018-04-05T12:37:11.851Z,8.00
2018-04-05T12:39:39.358Z,8.10
2018-04-05T12:42:07.607Z,8.60
2018-04-05T12:44:35.139Z,8.70
2018-04-05T12:47:02.675Z,9.00
2018-04-05T12:49:31.068Z,9.50
2018-04-05T12:51:58.612Z,9.50
2018-04-05T12:54:27.014Z,9.90
2018-04-05T12:56:54.572Z,9.90
2018-04-05T12:59:22.075Z,9.80
2018-04-05T13:01:49.570Z,9.80
2018-04-05T13:04:17.096Z,9.80
2018-04-05T13:06:45.200Z,9.90
2018-04-05T13:09:12.774Z,9.70
2018-04-05T13:11:40.313Z,9.70
2018-04-05T13:14:08.658Z,9.60
2018-04-05T13:16:36.259Z,9.50
2018-04-05T13:19:03.753Z,9.30
2018-04-05T13:21:31.476Z,9.10
2018-04-05T13:23:58.993Z,9.10
2018-04-05T13:26:26.578Z,9.00
2018-04-05T13:28:54.863Z,8.80
2018-04-05T13:31:22.406Z,8.80
2018-04-05T13:33:50.704Z,8.10
2018-04-05T13:36:18.204Z,8.10
2018-04-05T13:38:45.776Z,7.80
2018-04-05T13:41:13.322Z,7.40
2018-04-05T13:43:41.126Z,6.90
2018-04-05T13:46:08.604Z,6.90
2018-04-05T13:48:36.145Z,7.00
2018-04-05T13:51:03.714Z,7.00
2018-04-05T13:53:31.220Z,7.20
2018-04-05T13:55:59.044Z,7.30
2018-04-05T13:58:26.628Z,7.70
2018-04-05T14:00:54.860Z,7.70
2018-04-05T14:03:22.475Z,7.70
2018-04-05T14:05:49.978Z,8.00
2018-04-05T14:08:17.506Z,8.30
2018-04-05T14:10:45.048Z,8.40
2018-04-05T14:13:12.744Z,8.60
2018-04-05T14:15:41.032Z,8.90
2018-04-05T14:18:08.524Z,8.90
2018-04-05T14:20:36.052Z,9.00
2018-04-05T14:23:03.721Z,9.10
2018-04-05T14:25:31.222Z,9.10
2018-04-05T14:27:58.796Z,9.30
2018-04-05T14:30:26.255Z,9.30
2018-04-05T14:32:54.519Z,9.50
2018-04-05T14:35:22.030Z,9.40
2018-04-05T14:37:49.543Z,9.40
2018-04-05T14:40:17.811Z,9.40
2018-04-05T14:42:45.351Z,9.30
2018-04-05T14:45:12.870Z,9.30
2018-04-05T14:47:40.384Z,9.10
2018-04-05T14:50:08.661Z,9.30
2018-04-05T14:52:36.963Z,9.30
2018-04-05T14:55:05.256Z,9.10
2018-04-05T14:57:32.777Z,9.10
2018-04-05T15:00:00.314Z,8.90
2018-04-05T15:02:28.647Z,9.10
2018-04-05T15:04:56.154Z,9.10
2018-04-05T15:07:23.666Z,9.00
2018-04-05T15:09:51.161Z,9.00
2018-04-05T15:12:18.717Z,8.90
2018-04-05T15:14:46.240Z,8.90
2018-04-05T15:17:13.762Z,9.00
2018-04-05T15:19:42.071Z,9.40
2018-04-05T15:22:09.909Z,9.30
2018-04-05T15:24:38.190Z,9.70
2018-04-05T15:27:05.724Z,9.60
2018-04-05T15:29:33.227Z,9.50
2018-04-05T15:32:00.764Z,9.50
2018-04-05T15:34:28.327Z,9.50
2018-04-05T15:36:55.875Z,9.40
2018-04-05T15:39:24.176Z,9.20
2018-04-05T15:41:51.677Z,9.20
2018-04-05T15:44:20.726Z,9.10
2018-04-05T15:46:48.268Z,8.90
2018-04-05T15:49:15.755Z,9.10
2018-04-05T15:51:43.288Z,9.30
2018-04-05T15:54:10.810Z,9.10
2018-04-05T15:56:39.416Z,9.10
2018-04-05T15:59:07.676Z,9.30
2018-04-05T16:01:36.095Z,9.30
2018-04-05T16:04:03.628Z,9.30
2018-04-05T16:06:31.128Z,9.30
2018-04-05T16:08:59.635Z,9.30
2018-04-05T16:11:27.188Z,9.20
2018-04-05T16:13:54.731Z,9.30
2018-04-05T16:16:22.261Z,9.50
2018-04-05T16:18:49.811Z,9.50
2018-04-05T16:21:17.494Z,9.70
2018-04-05T16:23:45.734Z,9.90
2018-04-05T16:26:14.117Z,9.90
2018-04-05T16:28:47.001Z,9.90
2018-04-05T16:31:15.239Z,9.80
2018-04-05T16:33:42.788Z,9.80
2018-04-05T16:36:10.948Z,9.80
2018-04-05T16:38:38.822Z,9.80
2018-04-05T16:41:06.366Z,9.70
2018-04-05T16:43:33.887Z,9.60
2018-04-05T16:46:01.614Z,9.60
2018-04-05T16:48:29.151Z,9.60
2018-04-05T16:50:56.703Z,9.60
2018-04-05T16:53:24.199Z,9.60
2018-04-05T16:55:52.551Z,9.50
2018-04-05T16:58:20.015Z,9.40
2018-04-05T17:00:47.596Z,9.30
2018-04-05T17:03:15.986Z,9.30
2018-04-05T17:05:44.389Z,9.20
2018-04-05T17:08:11.885Z,9.20
2018-04-05T17:10:39.419Z,9.20
2018-04-05T17:13:06.934Z,9.20
2018-04-05T17:15:34.467Z,9.10
2018-04-05T17:18:02.014Z,9.10
2018-04-05T17:20:29.771Z,9.00
2018-04-05T17:22:57.373Z,9.00
2018-04-05T17:25:25.716Z,8.80
2018-04-05T17:27:53.347Z,8.80
2018-04-05T17:30:20.909Z,8.90
2018-04-05T17:32:48.443Z,8.80
2018-04-05T17:35:15.985Z,8.80
2018-04-05T17:37:44.290Z,8.80
2018-04-05T17:40:11.802Z,8.80
2018-04-05T17:42:40.071Z,8.80
2018-04-05T17:45:08.403Z,8.80
2018-04-05T17:47:35.944Z,8.80
2018-04-05T17:50:03.432Z,8.70
2018-04-05T17:52:31.021Z,8.70
2018-04-05T17:54:59.290Z,8.60
2018-04-05T17:57:26.945Z,8.50
2018-04-05T17:59:54.535Z,8.40
2018-04-05T18:02:22.062Z,8.30
2018-04-05T18:04:49.577Z,8.20
2018-04-05T18:07:17.103Z,8.10
2018-04-05T18:09:45.392Z,8.00
2018-04-05T18:12:12.895Z,8.00
2018-04-05T18:14:40.459Z,7.90
2018-04-05T18:17:07.991Z,7.80
2018-04-05T18:19:35.525Z,7.80
2018-04-05T18:22:03.067Z,7.70
2018-04-05T18:24:31.345Z,7.60
2018-04-05T18:26:59.647Z,7.50
2018-04-05T18:29:27.181Z,7.50
2018-04-05T18:31:54.684Z,7.50
2018-04-05T18:34:22.207Z,7.40
2018-04-05T18:36:49.753Z,7.30
2018-04-05T18:39:18.170Z,7.20
2018-04-05T18:41:45.678Z,7.20
2018-04-05T18:44:14.194Z,7.20
2018-04-05T18:46:41.708Z,7.20
2018-04-05T18:49:10.498Z,7.00
2018-04-05T18:51:38.943Z,7.00
2018-04-05T18:54:07.025Z,7.00
2018-04-05T18:56:34.560Z,7.10
2018-04-05T18:59:02.120Z,7.10
2018-04-05T19:01:29.627Z,7.00
2018-04-05T19:03:57.931Z,6.80
2018-04-05T19:06:25.486Z,6.80
2018-04-05T19:08:53.050Z,6.70
2018-04-05T19:11:20.567Z,6.60
2018-04-05T19:13:48.101Z,6.60
2018-04-05T19:16:15.636Z,6.50
2018-04-05T19:18:43.293Z,6.50
2018-04-05T19:21:10.813Z,6.50
2018-04-05T19:23:39.106Z,6.50
2018-04-05T19:26:06.623Z,6.50
2018-04-05T19:28:34.953Z,6.30
2018-04-05T19:31:02.498Z,6.30
2018-04-05T19:33:30.039Z,6.20
2018-04-05T19:35:57.634Z,6.20
2018-04-05T19:38:25.184Z,6.10
2018-04-05T19:40:53.250Z,6.00
2018-04-05T19:43:20.796Z,6.00
2018-04-05T19:45:49.066Z,5.90
2018-04-05T19:48:17.366Z,5.80
2018-04-05T19:50:44.876Z,5.80
2018-04-05T19:53:13.159Z,5.70
2018-04-05T19:55:40.672Z,5.70
2018-04-05T19:58:08.183Z,5.60
2018-04-05T20:00:36.486Z,5.50
2018-04-05T20:03:04.059Z,5.50
2018-04-05T20:05:31.575Z,5.50
2018-04-05T20:07:59.978Z,5.40
2018-04-05T20:10:27.500Z,5.40
2018-04-05T20:12:55.070Z,5.40
2018-04-05T20:15:22.672Z,5.40
2018-04-05T20:17:50.193Z,5.30
2018-04-05T20:20:18.484Z,5.10
2018-04-05T20:22:46.000Z,5.10
2018-04-05T20:25:13.552Z,5.10
2018-04-05T20:27:41.049Z,5.00
2018-04-05T20:30:09.524Z,5.00
2018-04-05T20:32:37.060Z,5.00
2018-04-05T20:35:04.597Z,5.00
2018-04-05T20:37:32.086Z,5.00
2018-04-05T20:40:00.386Z,4.80
2018-04-05T20:42:27.901Z,4.80
2018-04-05T20:44:55.415Z,4.80
2018-04-05T20:47:22.976Z,4.80
2018-04-05T20:49:50.484Z,4.70
2018-04-05T20:52:18.785Z,4.70
2018-04-05T20:54:46.289Z,4.70
2018-04-05T20:57:13.834Z,4.70
2018-04-05T20:59:41.451Z,4.60
2018-04-05T21:02:09.736Z,4.50
2018-04-05T21:04:37.282Z,4.50
2018-04-05T21:07:05.613Z,4.50
2018-04-05T21:09:33.702Z,4.50
2018-04-05T21:12:01.989Z,4.40
2018-04-05T21:14:29.594Z,4.40
2018-04-05T21:16:57.181Z,4.30
2018-04-05T21:19:24.684Z,4.30
2018-04-05T21:21:53.017Z,4.30
2018-04-05T21:24:20.535Z,4.30
2018-04-05T21:26:48.045Z,4.20
2018-04-05T21:29:15.558Z,4.20
2018-04-05T21:31:43.088Z,4.20
2018-04-05T21:34:11.384Z,4.20
2018-04-05T21:36:38.895Z,4.10
2018-04-05T21:39:07.911Z,4.10
2018-04-05T21:41:36.224Z,4.00
2018-04-05T21:44:03.763Z,4.00
2018-04-05T21:46:31.327Z,4.00
2018-04-05T21:48:58.891Z,4.00
2018-04-05T21:51:27.297Z,4.00
2018-04-05T21:53:54.842Z,4.00
2018-04-05T21:56:22.457Z,4.00
2018-04-05T21:58:49.928Z,4.00
2018-04-05T22:01:18.227Z,3.90
2018-04-05T22:03:45.746Z,3.90
2018-04-05T22:06:14.053Z,3.90
2018-04-05T22:08:41.576Z,3.90
2018-04-05T22:11:09.109Z,3.80
2018-04-05T22:13:36.631Z,3.80
2018-04-05T22:16:04.209Z,3.80
2018-04-05T22:18:31.752Z,3.80
2018-04-05T22:20:59.254Z,3.80
2018-04-05T22:23:27.551Z,3.70
2018-04-05T22:25:55.858Z,3.60
2018-04-05T22:28:23.377Z,3.60
2018-04-05T22:30:51.656Z,3.50
2018-04-05T22:33:19.930Z,3.40
2018-04-05T22:35:48.202Z,3.40
2018-04-05T22:38:16.490Z,3.40
2018-04-05T22:40:44.760Z,3.40
2018-04-05T22:43:13.064Z,3.40
2018-04-05T22:45:40.556Z,3.40
2018-04-05T22:48:08.843Z,3.20
2018-04-05T22:50:36.451Z,3.20
2018-04-05T22:53:04.372Z,3.30
2018-04-05T22:55:31.885Z,3.20
2018-04-05T22:57:59.410Z,3.20
2018-04-05T23:00:27.715Z,3.30
2018-04-05T23:02:55.238Z,3.20
2018-04-05T23:05:23.592Z,3.20
2018-04-05T23:07:52.599Z,3.20
2018-04-05T23:10:20.947Z,3.20
2018-04-05T23:12:48.478Z,3.20
2018-04-05T23:15:15.997Z,3.20
2018-04-05T23:17:44.284Z,3.00
2018-04-05T23:20:11.781Z,3.00
2018-04-05T23:22:39.349Z,3.10
2018-04-05T23:25:06.852Z,3.10
2018-04-05T23:27:35.154Z,3.10
2018-04-05T23:30:02.798Z,3.00
2018-04-05T23:32:31.102Z,3.00
2018-04-05T23:34:58.643Z,3.00
2018-04-05T23:37:26.160Z,3.00
2018-04-05T23:39:53.700Z,3.10
2018-04-05T23:42:21.246Z,3.10
2018-04-05T23:44:48.880Z,3.40
2018-04-05T23:47:16.431Z,3.20
2018-04-05T23:49:43.943Z,3.10
2018-04-05T23:52:11.464Z,3.00
2018-04-05T23:54:38.971Z,3.10
2018-04-05T23:57:07.260Z,3.00
2018-04-05T23:59:35.549Z,3.10
